sensor_id;sensor_type;location;lat;lon;timestamp;P1;durP1;ratioP1;P2;durP2;ratioP2
31087;SDS011;17745;55.914;37.554;2023-02-28T00:17:08;17.45;;;9.68;;
31087;SDS011;17745;55.914;37.554;2023-02-28T00:19:51;17.40;;;10.48;;
31087;SDS011;17745;55.914;37.554;2023-02-28T00:22:25;16.73;;;9.68;;
31087;SDS011;17745;55.914;37.554;2023-02-28T00:25:01;12.13;;;8.07;;
31087;SDS011;17745;55.914;37.554;2023-02-28T00:27:41;14.32;;;8.25;;
31087;SDS011;17745;55.914;37.554;2023-02-28T00:30:26;14.82;;;9.07;;
31087;SDS011;17745;55.914;37.554;2023-02-28T00:36:35;13.05;;;8.18;;
31087;SDS011;17745;55.914;37.554;2023-02-28T00:39:16;12.57;;;7.75;;
31087;SDS011;17745;55.914;37.554;2023-02-28T00:42:23;13.60;;;8.68;;
31087;SDS011;17745;55.914;37.554;2023-02-28T00:44:54;11.63;;;8.30;;
31087;SDS011;17745;55.914;37.554;2023-02-28T01:01:35;10.23;;;7.12;;
31087;SDS011;17745;55.914;37.554;2023-02-28T01:04:23;12.77;;;8.10;;
31087;SDS011;17745;55.914;37.554;2023-02-28T01:07:00;8.82;;;6.07;;
31087;SDS011;17745;55.914;37.554;2023-02-28T01:13:02;11.27;;;8.00;;
31087;SDS011;17745;55.914;37.554;2023-02-28T01:15:55;10.82;;;7.30;;
31087;SDS011;17745;55.914;37.554;2023-02-28T01:21:46;11.70;;;8.88;;
31087;SDS011;17745;55.914;37.554;2023-02-28T01:24:44;9.48;;;6.70;;
31087;SDS011;17745;55.914;37.554;2023-02-28T01:27:16;9.50;;;7.12;;
31087;SDS011;17745;55.914;37.554;2023-02-28T01:29:48;9.27;;;7.07;;
31087;SDS011;17745;55.914;37.554;2023-02-28T01:32:57;10.75;;;7.28;;
31087;SDS011;17745;55.914;37.554;2023-02-28T01:42:17;11.52;;;8.40;;
31087;SDS011;17745;55.914;37.554;2023-02-28T01:48:27;12.13;;;8.15;;
31087;SDS011;17745;55.914;37.554;2023-02-28T01:51:07;12.95;;;8.68;;
31087;SDS011;17745;55.914;37.554;2023-02-28T01:53:42;12.45;;;8.77;;
31087;SDS011;17745;55.914;37.554;2023-02-28T01:56:30;13.43;;;8.18;;
31087;SDS011;17745;55.914;37.554;2023-02-28T01:59:09;11.07;;;7.53;;
31087;SDS011;17745;55.914;37.554;2023-02-28T02:01:50;12.40;;;7.45;;
31087;SDS011;17745;55.914;37.554;2023-02-28T02:04:32;14.20;;;8.60;;
31087;SDS011;17745;55.914;37.554;2023-02-28T02:07:09;9.90;;;6.90;;
31087;SDS011;17745;55.914;37.554;2023-02-28T02:10:02;13.05;;;7.72;;
31087;SDS011;17745;55.914;37.554;2023-02-28T02:16:10;12.10;;;8.00;;
31087;SDS011;17745;55.914;37.554;2023-02-28T02:19:22;10.80;;;7.55;;
31087;SDS011;17745;55.914;37.554;2023-02-28T02:22:29;11.27;;;7.43;;
31087;SDS011;17745;55.914;37.554;2023-02-28T02:25:38;11.12;;;7.70;;
31087;SDS011;17745;55.914;37.554;2023-02-28T02:28:26;13.45;;;7.35;;
31087;SDS011;17745;55.914;37.554;2023-02-28T02:37:10;11.93;;;7.75;;
31087;SDS011;17745;55.914;37.554;2023-02-28T02:39:50;12.40;;;7.93;;
31087;SDS011;17745;55.914;37.554;2023-02-28T02:42:31;10.70;;;6.93;;
31087;SDS011;17745;55.914;37.554;2023-02-28T02:45:25;10.88;;;7.50;;
31087;SDS011;17745;55.914;37.554;2023-02-28T02:48:23;9.85;;;6.68;;
31087;SDS011;17745;55.914;37.554;2023-02-28T02:51:09;11.00;;;8.18;;
31087;SDS011;17745;55.914;37.554;2023-02-28T02:53:47;11.35;;;7.87;;
31087;SDS011;17745;55.914;37.554;2023-02-28T02:56:23;10.88;;;7.68;;
31087;SDS011;17745;55.914;37.554;2023-02-28T02:59:02;12.93;;;7.68;;
31087;SDS011;17745;55.914;37.554;2023-02-28T03:01:42;9.52;;;6.47;;
31087;SDS011;17745;55.914;37.554;2023-02-28T03:04:18;11.85;;;8.85;;
31087;SDS011;17745;55.914;37.554;2023-02-28T03:07:19;11.00;;;7.25;;
31087;SDS011;17745;55.914;37.554;2023-02-28T03:10:25;13.05;;;7.12;;
31087;SDS011;17745;55.914;37.554;2023-02-28T03:13:06;15.23;;;8.00;;
31087;SDS011;17745;55.914;37.554;2023-02-28T03:15:59;12.05;;;7.22;;
31087;SDS011;17745;55.914;37.554;2023-02-28T03:18:43;12.02;;;7.28;;
31087;SDS011;17745;55.914;37.554;2023-02-28T03:21:27;10.30;;;6.62;;
31087;SDS011;17745;55.914;37.554;2023-02-28T03:24:08;10.65;;;7.10;;
31087;SDS011;17745;55.914;37.554;2023-02-28T03:26:50;13.25;;;6.00;;
31087;SDS011;17745;55.914;37.554;2023-02-28T03:29:33;14.43;;;8.07;;
31087;SDS011;17745;55.914;37.554;2023-02-28T03:32:14;12.77;;;8.00;;
31087;SDS011;17745;55.914;37.554;2023-02-28T03:34:56;10.35;;;6.50;;
31087;SDS011;17745;55.914;37.554;2023-02-28T03:37:42;10.20;;;7.15;;
31087;SDS011;17745;55.914;37.554;2023-02-28T03:40:22;9.40;;;6.25;;
31087;SDS011;17745;55.914;37.554;2023-02-28T03:43:18;8.35;;;6.32;;
31087;SDS011;17745;55.914;37.554;2023-02-28T03:46:02;11.95;;;6.82;;
31087;SDS011;17745;55.914;37.554;2023-02-28T03:48:42;9.05;;;6.12;;
31087;SDS011;17745;55.914;37.554;2023-02-28T03:51:33;10.68;;;6.95;;
31087;SDS011;17745;55.914;37.554;2023-02-28T03:54:22;9.18;;;6.50;;
31087;SDS011;17745;55.914;37.554;2023-02-28T03:57:37;10.85;;;7.05;;
31087;SDS011;17745;55.914;37.554;2023-02-28T04:00:19;10.00;;;7.60;;
31087;SDS011;17745;55.914;37.554;2023-02-28T04:02:54;11.23;;;7.25;;
31087;SDS011;17745;55.914;37.554;2023-02-28T04:05:26;10.25;;;6.87;;
31087;SDS011;17745;55.914;37.554;2023-02-28T04:08:07;9.68;;;6.95;;
31087;SDS011;17745;55.914;37.554;2023-02-28T04:35:17;10.00;;;7.43;;
31087;SDS011;17745;55.914;37.554;2023-02-28T04:38:16;11.52;;;6.43;;
31087;SDS011;17745;55.914;37.554;2023-02-28T04:41:01;9.63;;;6.53;;
31087;SDS011;17745;55.914;37.554;2023-02-28T04:44:12;9.90;;;6.45;;
31087;SDS011;17745;55.914;37.554;2023-02-28T04:46:52;10.52;;;6.50;;
31087;SDS011;17745;55.914;37.554;2023-02-28T04:49:32;9.73;;;6.75;;
31087;SDS011;17745;55.914;37.554;2023-02-28T04:52:28;11.07;;;7.10;;
31087;SDS011;17745;55.914;37.554;2023-02-28T04:55:23;10.55;;;6.70;;
31087;SDS011;17745;55.914;37.554;2023-02-28T04:57:57;11.12;;;7.05;;
31087;SDS011;17745;55.914;37.554;2023-02-28T05:00:32;8.07;;;5.80;;
31087;SDS011;17745;55.914;37.554;2023-02-28T05:16:31;11.68;;;6.57;;
31087;SDS011;17745;55.914;37.554;2023-02-28T05:19:24;8.45;;;6.32;;
31087;SDS011;17745;55.914;37.554;2023-02-28T05:21:55;9.55;;;6.40;;
31087;SDS011;17745;55.914;37.554;2023-02-28T05:24:31;9.38;;;6.72;;
31087;SDS011;17745;55.914;37.554;2023-02-28T05:27:16;10.30;;;6.53;;
31087;SDS011;17745;55.914;37.554;2023-02-28T05:30:04;10.18;;;6.50;;
31087;SDS011;17745;55.914;37.554;2023-02-28T05:32:53;16.87;;;7.15;;
31087;SDS011;17745;55.914;37.554;2023-02-28T05:35:24;10.23;;;7.10;;
31087;SDS011;17745;55.914;37.554;2023-02-28T05:38:08;8.48;;;6.25;;
31087;SDS011;17745;55.914;37.554;2023-02-28T05:40:52;10.57;;;5.93;;
31087;SDS011;17745;55.914;37.554;2023-02-28T05:44:39;10.38;;;6.30;;
31087;SDS011;17745;55.914;37.554;2023-02-28T05:47:30;10.40;;;6.45;;
31087;SDS011;17745;55.914;37.554;2023-02-28T05:50:10;7.10;;;5.10;;
31087;SDS011;17745;55.914;37.554;2023-02-28T05:52:48;8.73;;;5.85;;
31087;SDS011;17745;55.914;37.554;2023-02-28T05:55:23;14.55;;;5.28;;
31087;SDS011;17745;55.914;37.554;2023-02-28T05:58:16;7.28;;;5.43;;
31087;SDS011;17745;55.914;37.554;2023-02-28T06:00:47;7.22;;;5.60;;
31087;SDS011;17745;55.914;37.554;2023-02-28T06:03:29;8.90;;;5.82;;
31087;SDS011;17745;55.914;37.554;2023-02-28T06:06:11;8.73;;;6.32;;
31087;SDS011;17745;55.914;37.554;2023-02-28T06:08:42;8.30;;;5.78;;
31087;SDS011;17745;55.914;37.554;2023-02-28T06:11:12;7.75;;;5.65;;
31087;SDS011;17745;55.914;37.554;2023-02-28T06:13:48;13.27;;;6.45;;
31087;SDS011;17745;55.914;37.554;2023-02-28T06:16:44;10.75;;;6.95;;
31087;SDS011;17745;55.914;37.554;2023-02-28T06:19:20;8.95;;;6.22;;
31087;SDS011;17745;55.914;37.554;2023-02-28T06:26:20;7.40;;;5.25;;
31087;SDS011;17745;55.914;37.554;2023-02-28T06:28:57;7.93;;;5.87;;
31087;SDS011;17745;55.914;37.554;2023-02-28T06:31:43;8.98;;;6.15;;
31087;SDS011;17745;55.914;37.554;2023-02-28T06:34:13;9.15;;;5.72;;
31087;SDS011;17745;55.914;37.554;2023-02-28T06:36:42;11.93;;;6.28;;
31087;SDS011;17745;55.914;37.554;2023-02-28T06:39:11;10.43;;;5.97;;
31087;SDS011;17745;55.914;37.554;2023-02-28T06:41:45;8.07;;;5.50;;
31087;SDS011;17745;55.914;37.554;2023-02-28T06:44:29;8.88;;;4.95;;
31087;SDS011;17745;55.914;37.554;2023-02-28T06:47:08;8.23;;;6.00;;
31087;SDS011;17745;55.914;37.554;2023-02-28T06:49:38;7.57;;;5.25;;
31087;SDS011;17745;55.914;37.554;2023-02-28T06:52:12;8.77;;;5.80;;
31087;SDS011;17745;55.914;37.554;2023-02-28T06:55:41;9.55;;;6.25;;
31087;SDS011;17745;55.914;37.554;2023-02-28T06:58:20;9.55;;;5.68;;
31087;SDS011;17745;55.914;37.554;2023-02-28T07:00:56;12.07;;;6.28;;
31087;SDS011;17745;55.914;37.554;2023-02-28T07:03:31;8.80;;;5.97;;
31087;SDS011;17745;55.914;37.554;2023-02-28T07:06:46;8.57;;;5.97;;
31087;SDS011;17745;55.914;37.554;2023-02-28T07:27:01;7.07;;;5.20;;
31087;SDS011;17745;55.914;37.554;2023-02-28T07:29:31;11.43;;;5.18;;
31087;SDS011;17745;55.914;37.554;2023-02-28T07:32:05;7.80;;;5.82;;
31087;SDS011;17745;55.914;37.554;2023-02-28T07:34:35;9.43;;;5.90;;
31087;SDS011;17745;55.914;37.554;2023-02-28T07:37:07;8.05;;;5.75;;
31087;SDS011;17745;55.914;37.554;2023-02-28T07:39:36;8.43;;;5.57;;
31087;SDS011;17745;55.914;37.554;2023-02-28T07:49:37;8.13;;;5.00;;
31087;SDS011;17745;55.914;37.554;2023-02-28T07:52:13;9.02;;;5.50;;
31087;SDS011;17745;55.914;37.554;2023-02-28T07:54:46;10.02;;;5.37;;
31087;SDS011;17745;55.914;37.554;2023-02-28T08:00:12;7.85;;;5.87;;
31087;SDS011;17745;55.914;37.554;2023-02-28T08:02:47;7.50;;;5.12;;
31087;SDS011;17745;55.914;37.554;2023-02-28T08:05:41;7.22;;;4.72;;
31087;SDS011;17745;55.914;37.554;2023-02-28T08:08:23;8.88;;;5.82;;
31087;SDS011;17745;55.914;37.554;2023-02-28T08:11:17;10.40;;;5.53;;
31087;SDS011;17745;55.914;37.554;2023-02-28T08:13:52;8.30;;;6.10;;
31087;SDS011;17745;55.914;37.554;2023-02-28T08:16:28;9.23;;;5.72;;
31087;SDS011;17745;55.914;37.554;2023-02-28T08:19:12;9.88;;;5.78;;
31087;SDS011;17745;55.914;37.554;2023-02-28T08:25:25;11.12;;;6.00;;
31087;SDS011;17745;55.914;37.554;2023-02-28T08:27:58;9.80;;;5.47;;
31087;SDS011;17745;55.914;37.554;2023-02-28T08:30:43;12.00;;;5.60;;
31087;SDS011;17745;55.914;37.554;2023-02-28T08:33:30;8.95;;;5.65;;
31087;SDS011;17745;55.914;37.554;2023-02-28T08:36:48;9.88;;;6.25;;
31087;SDS011;17745;55.914;37.554;2023-02-28T08:39:47;13.57;;;6.95;;
31087;SDS011;17745;55.914;37.554;2023-02-28T09:01:19;9.38;;;4.75;;
31087;SDS011;17745;55.914;37.554;2023-02-28T09:38:27;8.30;;;5.70;;
31087;SDS011;17745;55.914;37.554;2023-02-28T14:42:38;11.82;;;6.50;;
31087;SDS011;17745;55.914;37.554;2023-02-28T16:23:30;7.07;;;4.65;;
31087;SDS011;17745;55.914;37.554;2023-02-28T16:26:35;7.93;;;5.40;;
31087;SDS011;17745;55.914;37.554;2023-02-28T16:33:47;9.50;;;5.25;;
31087;SDS011;17745;55.914;37.554;2023-02-28T16:48:17;7.15;;;4.70;;
31087;SDS011;17745;55.914;37.554;2023-02-28T16:50:52;7.75;;;4.25;;
31087;SDS011;17745;55.914;37.554;2023-02-28T16:53:31;11.88;;;4.97;;
31087;SDS011;17745;55.914;37.554;2023-02-28T16:56:12;7.90;;;5.10;;
31087;SDS011;17745;55.914;37.554;2023-02-28T16:58:54;7.62;;;4.15;;
31087;SDS011;17745;55.914;37.554;2023-02-28T17:02:47;10.77;;;5.28;;
31087;SDS011;17745;55.914;37.554;2023-02-28T17:05:56;8.02;;;4.25;;
31087;SDS011;17745;55.914;37.554;2023-02-28T19:05:09;5.45;;;2.55;;
31087;SDS011;17745;55.914;37.554;2023-02-28T19:07:47;4.35;;;2.70;;
31087;SDS011;17745;55.914;37.554;2023-02-28T19:14:30;3.30;;;2.87;;
31087;SDS011;17745;55.914;37.554;2023-02-28T20:29:42;3.35;;;3.03;;
31087;SDS011;17745;55.914;37.554;2023-02-28T20:32:12;4.03;;;2.55;;
31087;SDS011;17745;55.914;37.554;2023-02-28T20:34:46;3.97;;;2.90;;
31087;SDS011;17745;55.914;37.554;2023-02-28T20:37:27;10.75;;;3.12;;
31087;SDS011;17745;55.914;37.554;2023-02-28T20:39:59;5.00;;;3.08;;
31087;SDS011;17745;55.914;37.554;2023-02-28T20:42:37;5.35;;;3.12;;
31087;SDS011;17745;55.914;37.554;2023-02-28T20:48:41;7.68;;;2.62;;
31087;SDS011;17745;55.914;37.554;2023-02-28T20:51:22;3.85;;;3.00;;
31087;SDS011;17745;55.914;37.554;2023-02-28T20:54:01;2.83;;;2.53;;
31087;SDS011;17745;55.914;37.554;2023-02-28T20:57:37;3.40;;;2.80;;
31087;SDS011;17745;55.914;37.554;2023-02-28T21:00:44;5.00;;;3.42;;
31087;SDS011;17745;55.914;37.554;2023-02-28T21:03:19;8.60;;;3.65;;
